sensor_id;sensor_type;location;lat;lon;timestamp;temperature;humidity
39453;DHT22;25154;-33.684;151.102;2022-09-19T00:02:16;17.40;99.50
39453;DHT22;25154;-33.684;151.102;2022-09-19T00:07:18;17.60;99.10
39453;DHT22;25154;-33.684;151.102;2022-09-19T00:12:20;17.60;98.20
39453;DHT22;25154;-33.684;151.102;2022-09-19T00:17:23;17.90;96.80
39453;DHT22;25154;-33.684;151.102;2022-09-19T00:22:26;17.80;96.50
39453;DHT22;25154;-33.684;151.102;2022-09-19T00:27:28;17.40;96.10
39453;DHT22;25154;-33.684;151.102;2022-09-19T00:32:32;17.40;97.20
39453;DHT22;25154;-33.684;151.102;2022-09-19T00:37:35;18.20;96.40
39453;DHT22;25154;-33.684;151.102;2022-09-19T00:42:37;18.20;94.90
39453;DHT22;25154;-33.684;151.102;2022-09-19T00:47:46;18.40;95.60
39453;DHT22;25154;-33.684;151.102;2022-09-19T00:53:02;18.70;93.70
39453;DHT22;25154;-33.684;151.102;2022-09-19T00:58:32;19.20;93.60
39453;DHT22;25154;-33.684;151.102;2022-09-19T01:03:35;19.40;93.20
39453;DHT22;25154;-33.684;151.102;2022-09-19T01:09:05;19.10;93.10
39453;DHT22;25154;-33.684;151.102;2022-09-19T01:14:38;18.80;93.30
39453;DHT22;25154;-33.684;151.102;2022-09-19T01:25:42;19.50;93.00
39453;DHT22;25154;-33.684;151.102;2022-09-19T01:36:19;19.40;93.50
39453;DHT22;25154;-33.684;151.102;2022-09-19T01:41:23;18.80;93.30
39453;DHT22;25154;-33.684;151.102;2022-09-19T02:13:31;20.20;92.70
39453;DHT22;25154;-33.684;151.102;2022-09-19T02:19:05;19.50;91.90
39453;DHT22;25154;-33.684;151.102;2022-09-19T02:24:12;18.90;92.80
39453;DHT22;25154;-33.684;151.102;2022-09-19T02:29:23;18.50;93.40
39453;DHT22;25154;-33.684;151.102;2022-09-19T02:34:27;18.90;93.20
39453;DHT22;25154;-33.684;151.102;2022-09-19T02:39:59;20.20;93.10
39453;DHT22;25154;-33.684;151.102;2022-09-19T02:45:26;20.00;94.60
39453;DHT22;25154;-33.684;151.102;2022-09-19T02:50:50;19.70;92.80
39453;DHT22;25154;-33.684;151.102;2022-09-19T02:56:02;19.90;93.00
39453;DHT22;25154;-33.684;151.102;2022-09-19T03:01:12;20.30;92.30
39453;DHT22;25154;-33.684;151.102;2022-09-19T03:06:18;19.90;93.00
39453;DHT22;25154;-33.684;151.102;2022-09-19T03:11:25;19.50;95.70
39453;DHT22;25154;-33.684;151.102;2022-09-19T03:16:33;20.80;93.50
39453;DHT22;25154;-33.684;151.102;2022-09-19T03:21:37;21.30;93.70
39453;DHT22;25154;-33.684;151.102;2022-09-19T03:26:40;21.50;91.70
39453;DHT22;25154;-33.684;151.102;2022-09-19T03:31:43;21.30;91.40
39453;DHT22;25154;-33.684;151.102;2022-09-19T03:36:47;21.40;92.20
39453;DHT22;25154;-33.684;151.102;2022-09-19T03:41:50;21.70;90.70
39453;DHT22;25154;-33.684;151.102;2022-09-19T03:46:53;21.30;93.60
39453;DHT22;25154;-33.684;151.102;2022-09-19T03:51:56;20.60;91.40
39453;DHT22;25154;-33.684;151.102;2022-09-19T03:57:00;20.40;91.80
39453;DHT22;25154;-33.684;151.102;2022-09-19T04:02:03;21.00;93.70
39453;DHT22;25154;-33.684;151.102;2022-09-19T04:07:06;20.90;92.70
39453;DHT22;25154;-33.684;151.102;2022-09-19T04:12:10;20.90;95.50
39453;DHT22;25154;-33.684;151.102;2022-09-19T04:17:14;21.70;93.90
39453;DHT22;25154;-33.684;151.102;2022-09-19T04:22:17;21.80;93.30
39453;DHT22;25154;-33.684;151.102;2022-09-19T04:27:20;21.50;94.60
39453;DHT22;25154;-33.684;151.102;2022-09-19T04:32:23;20.90;90.80
39453;DHT22;25154;-33.684;151.102;2022-09-19T04:37:27;20.60;91.20
39453;DHT22;25154;-33.684;151.102;2022-09-19T04:42:31;20.60;92.50
39453;DHT22;25154;-33.684;151.102;2022-09-19T04:47:36;20.50;91.40
39453;DHT22;25154;-33.684;151.102;2022-09-19T04:52:40;20.40;91.30
39453;DHT22;25154;-33.684;151.102;2022-09-19T04:57:43;20.50;92.80
39453;DHT22;25154;-33.684;151.102;2022-09-19T05:02:46;20.40;92.40
39453;DHT22;25154;-33.684;151.102;2022-09-19T05:07:52;21.00;91.30
39453;DHT22;25154;-33.684;151.102;2022-09-19T05:12:54;22.70;90.40
39453;DHT22;25154;-33.684;151.102;2022-09-19T05:17:57;23.70;85.20
39453;DHT22;25154;-33.684;151.102;2022-09-19T05:23:00;23.50;89.40
39453;DHT22;25154;-33.684;151.102;2022-09-19T05:28:03;23.90;87.00
39453;DHT22;25154;-33.684;151.102;2022-09-19T05:33:09;23.10;87.30
39453;DHT22;25154;-33.684;151.102;2022-09-19T05:38:13;24.00;84.20
39453;DHT22;25154;-33.684;151.102;2022-09-19T05:43:16;24.40;83.90
39453;DHT22;25154;-33.684;151.102;2022-09-19T05:48:19;24.80;81.00
39453;DHT22;25154;-33.684;151.102;2022-09-19T05:53:22;24.60;83.40
39453;DHT22;25154;-33.684;151.102;2022-09-19T05:58:44;24.00;82.20
39453;DHT22;25154;-33.684;151.102;2022-09-19T06:03:47;25.30;81.60
39453;DHT22;25154;-33.684;151.102;2022-09-19T06:08:57;26.30;78.50
39453;DHT22;25154;-33.684;151.102;2022-09-19T06:14:00;26.90;74.80
39453;DHT22;25154;-33.684;151.102;2022-09-19T06:19:19;26.80;77.40
39453;DHT22;25154;-33.684;151.102;2022-09-19T06:24:21;27.10;74.40
39453;DHT22;25154;-33.684;151.102;2022-09-19T06:29:23;27.80;76.80
39453;DHT22;25154;-33.684;151.102;2022-09-19T06:34:26;27.40;73.40
39453;DHT22;25154;-33.684;151.102;2022-09-19T06:39:28;26.70;77.90
39453;DHT22;25154;-33.684;151.102;2022-09-19T06:44:31;26.20;81.30
39453;DHT22;25154;-33.684;151.102;2022-09-19T06:49:34;25.30;83.30
39453;DHT22;25154;-33.684;151.102;2022-09-19T06:54:40;24.70;84.60
39453;DHT22;25154;-33.684;151.102;2022-09-19T06:59:43;24.30;86.30
39453;DHT22;25154;-33.684;151.102;2022-09-19T07:04:45;23.00;88.40
39453;DHT22;25154;-33.684;151.102;2022-09-19T07:09:48;21.50;92.00
39453;DHT22;25154;-33.684;151.102;2022-09-19T07:14:51;20.40;93.10
39453;DHT22;25154;-33.684;151.102;2022-09-19T07:20:06;19.50;94.00
39453;DHT22;25154;-33.684;151.102;2022-09-19T07:25:11;18.80;94.90
39453;DHT22;25154;-33.684;151.102;2022-09-19T07:30:15;18.00;95.90
39453;DHT22;25154;-33.684;151.102;2022-09-19T07:35:21;17.40;98.20
39453;DHT22;25154;-33.684;151.102;2022-09-19T07:40:25;16.80;98.20
39453;DHT22;25154;-33.684;151.102;2022-09-19T07:45:28;16.50;99.90
39453;DHT22;25154;-33.684;151.102;2022-09-19T07:50:32;16.10;99.90
39453;DHT22;25154;-33.684;151.102;2022-09-19T07:55:35;15.80;99.90
39453;DHT22;25154;-33.684;151.102;2022-09-19T08:00:39;15.40;99.90
39453;DHT22;25154;-33.684;151.102;2022-09-19T08:05:50;15.10;99.90
39453;DHT22;25154;-33.684;151.102;2022-09-19T08:10:58;14.80;99.90
39453;DHT22;25154;-33.684;151.102;2022-09-19T08:16:04;14.50;99.90
39453;DHT22;25154;-33.684;151.102;2022-09-19T08:21:08;14.20;99.90
39453;DHT22;25154;-33.684;151.102;2022-09-19T08:26:11;14.00;99.90
39453;DHT22;25154;-33.684;151.102;2022-09-19T08:31:13;13.80;99.90
39453;DHT22;25154;-33.684;151.102;2022-09-19T08:36:18;13.50;99.90
39453;DHT22;25154;-33.684;151.102;2022-09-19T08:47:11;13.20;99.90
39453;DHT22;25154;-33.684;151.102;2022-09-19T08:52:25;13.00;99.90
39453;DHT22;25154;-33.684;151.102;2022-09-19T09:02:47;12.70;99.90
39453;DHT22;25154;-33.684;151.102;2022-09-19T09:07:55;12.70;99.90
39453;DHT22;25154;-33.684;151.102;2022-09-19T09:13:04;12.60;99.90
39453;DHT22;25154;-33.684;151.102;2022-09-19T09:23:48;11.70;99.90
39453;DHT22;25154;-33.684;151.102;2022-09-19T09:34:48;12.00;99.90
39453;DHT22;25154;-33.684;151.102;2022-09-19T09:40:43;11.80;99.90
39453;DHT22;25154;-33.684;151.102;2022-09-19T09:45:50;11.80;99.90
39453;DHT22;25154;-33.684;151.102;2022-09-19T09:56:18;11.50;99.90
39453;DHT22;25154;-33.684;151.102;2022-09-19T10:01:26;11.40;99.90
39453;DHT22;25154;-33.684;151.102;2022-09-19T10:07:21;11.30;99.90
39453;DHT22;25154;-33.684;151.102;2022-09-19T10:12:29;11.20;99.90
39453;DHT22;25154;-33.684;151.102;2022-09-19T10:17:37;11.20;99.90
39453;DHT22;25154;-33.684;151.102;2022-09-19T10:22:40;11.20;99.90
39453;DHT22;25154;-33.684;151.102;2022-09-19T10:27:45;11.10;99.90
39453;DHT22;25154;-33.684;151.102;2022-09-19T10:32:52;11.00;99.90
39453;DHT22;25154;-33.684;151.102;2022-09-19T10:38:15;10.90;99.90
39453;DHT22;25154;-33.684;151.102;2022-09-19T10:43:34;13.20;99.90
39453;DHT22;25154;-33.684;151.102;2022-09-19T10:48:39;10.80;99.90
39453;DHT22;25154;-33.684;151.102;2022-09-19T10:53:52;10.60;99.90
39453;DHT22;25154;-33.684;151.102;2022-09-19T11:04:25;10.50;99.90
39453;DHT22;25154;-33.684;151.102;2022-09-19T11:09:36;10.50;99.90
39453;DHT22;25154;-33.684;151.102;2022-09-19T11:14:58;10.50;99.90
39453;DHT22;25154;-33.684;151.102;2022-09-19T11:20:18;10.40;99.90
39453;DHT22;25154;-33.684;151.102;2022-09-19T11:31:11;10.20;99.90
39453;DHT22;25154;-33.684;151.102;2022-09-19T11:47:23;9.90;99.90
39453;DHT22;25154;-33.684;151.102;2022-09-19T12:03:18;10.00;99.90
39453;DHT22;25154;-33.684;151.102;2022-09-19T12:08:37;9.80;99.90
39453;DHT22;25154;-33.684;151.102;2022-09-19T12:13:54;9.90;99.90
39453;DHT22;25154;-33.684;151.102;2022-09-19T12:19:04;9.80;99.90
39453;DHT22;25154;-33.684;151.102;2022-09-19T12:24:43;9.90;99.90
39453;DHT22;25154;-33.684;151.102;2022-09-19T12:30:12;6.10;99.90
39453;DHT22;25154;-33.684;151.102;2022-09-19T12:51:12;9.60;99.90
39453;DHT22;25154;-33.684;151.102;2022-09-19T12:56:35;9.50;99.90
39453;DHT22;25154;-33.684;151.102;2022-09-19T13:01:44;9.50;99.90
39453;DHT22;25154;-33.684;151.102;2022-09-19T13:06:50;9.50;99.90
39453;DHT22;25154;-33.684;151.102;2022-09-19T13:12:21;9.50;99.90
39453;DHT22;25154;-33.684;151.102;2022-09-19T13:17:25;9.40;99.90
39453;DHT22;25154;-33.684;151.102;2022-09-19T13:22:49;9.40;99.90
39453;DHT22;25154;-33.684;151.102;2022-09-19T13:28:46;9.30;99.90
39453;DHT22;25154;-33.684;151.102;2022-09-19T13:33:53;9.20;99.90
39453;DHT22;25154;-33.684;151.102;2022-09-19T13:38:59;9.20;99.90
39453;DHT22;25154;-33.684;151.102;2022-09-19T13:44:22;9.10;99.90
39453;DHT22;25154;-33.684;151.102;2022-09-19T13:50:18;8.50;99.90
39453;DHT22;25154;-33.684;151.102;2022-09-19T14:00:35;8.90;99.90
39453;DHT22;25154;-33.684;151.102;2022-09-19T14:05:42;8.80;99.90
39453;DHT22;25154;-33.684;151.102;2022-09-19T14:10:48;8.90;99.90
39453;DHT22;25154;-33.684;151.102;2022-09-19T14:21:11;8.80;99.90
39453;DHT22;25154;-33.684;151.102;2022-09-19T14:47:48;8.60;99.90
39453;DHT22;25154;-33.684;151.102;2022-09-19T14:53:06;8.50;99.90
39453;DHT22;25154;-33.684;151.102;2022-09-19T14:58:30;8.60;99.90
39453;DHT22;25154;-33.684;151.102;2022-09-19T15:09:22;8.60;99.90
39453;DHT22;25154;-33.684;151.102;2022-09-19T15:14:26;8.40;99.90
39453;DHT22;25154;-33.684;151.102;2022-09-19T15:19:31;8.40;99.90
39453;DHT22;25154;-33.684;151.102;2022-09-19T15:24:34;8.50;99.90
39453;DHT22;25154;-33.684;151.102;2022-09-19T15:29:36;8.40;99.90
39453;DHT22;25154;-33.684;151.102;2022-09-19T15:34:39;8.30;99.90
39453;DHT22;25154;-33.684;151.102;2022-09-19T15:39:42;8.20;99.90
39453;DHT22;25154;-33.684;151.102;2022-09-19T15:44:48;8.10;99.90
39453;DHT22;25154;-33.684;151.102;2022-09-19T15:49:56;8.00;99.90
39453;DHT22;25154;-33.684;151.102;2022-09-19T15:54:59;7.90;99.90
39453;DHT22;25154;-33.684;151.102;2022-09-19T16:00:21;7.80;99.90
39453;DHT22;25154;-33.684;151.102;2022-09-19T16:10:32;7.70;99.90
39453;DHT22;25154;-33.684;151.102;2022-09-19T16:15:35;7.60;99.90
39453;DHT22;25154;-33.684;151.102;2022-09-19T16:20:46;7.60;99.90
39453;DHT22;25154;-33.684;151.102;2022-09-19T16:25:59;7.50;99.90
39453;DHT22;25154;-33.684;151.102;2022-09-19T16:36:19;7.40;99.90
39453;DHT22;25154;-33.684;151.102;2022-09-19T16:41:23;7.30;99.90
39453;DHT22;25154;-33.684;151.102;2022-09-19T16:46:26;7.40;99.90
39453;DHT22;25154;-33.684;151.102;2022-09-19T16:51:29;7.40;99.90
39453;DHT22;25154;-33.684;151.102;2022-09-19T16:56:31;7.40;99.90
39453;DHT22;25154;-33.684;151.102;2022-09-19T17:01:34;7.40;99.90
39453;DHT22;25154;-33.684;151.102;2022-09-19T17:06:36;7.30;99.90
39453;DHT22;25154;-33.684;151.102;2022-09-19T17:11:38;7.20;99.90
39453;DHT22;25154;-33.684;151.102;2022-09-19T17:16:40;7.20;99.90
39453;DHT22;25154;-33.684;151.102;2022-09-19T17:21:43;7.30;99.90
39453;DHT22;25154;-33.684;151.102;2022-09-19T17:26:47;7.10;99.90
39453;DHT22;25154;-33.684;151.102;2022-09-19T17:31:50;7.00;99.90
39453;DHT22;25154;-33.684;151.102;2022-09-19T17:36:54;7.10;99.90
39453;DHT22;25154;-33.684;151.102;2022-09-19T17:41:57;7.10;99.90
39453;DHT22;25154;-33.684;151.102;2022-09-19T17:47:00;6.90;99.90
39453;DHT22;25154;-33.684;151.102;2022-09-19T17:52:03;6.90;99.90
39453;DHT22;25154;-33.684;151.102;2022-09-19T17:57:06;6.80;99.90
39453;DHT22;25154;-33.684;151.102;2022-09-19T18:02:08;6.80;99.90
39453;DHT22;25154;-33.684;151.102;2022-09-19T18:07:29;6.90;99.90
39453;DHT22;25154;-33.684;151.102;2022-09-19T18:12:34;6.60;99.90
39453;DHT22;25154;-33.684;151.102;2022-09-19T18:17:37;6.60;99.90
39453;DHT22;25154;-33.684;151.102;2022-09-19T18:22:40;6.60;99.90
39453;DHT22;25154;-33.684;151.102;2022-09-19T18:27:44;6.70;99.90
39453;DHT22;25154;-33.684;151.102;2022-09-19T18:32:48;6.70;99.90
39453;DHT22;25154;-33.684;151.102;2022-09-19T18:37:51;6.60;99.90
39453;DHT22;25154;-33.684;151.102;2022-09-19T18:42:56;6.50;99.90
39453;DHT22;25154;-33.684;151.102;2022-09-19T18:48:00;6.50;99.90
39453;DHT22;25154;-33.684;151.102;2022-09-19T18:53:02;6.50;99.90
39453;DHT22;25154;-33.684;151.102;2022-09-19T18:58:04;6.40;99.90
39453;DHT22;25154;-33.684;151.102;2022-09-19T19:03:07;6.40;99.90
39453;DHT22;25154;-33.684;151.102;2022-09-19T19:08:09;6.30;99.90
39453;DHT22;25154;-33.684;151.102;2022-09-19T19:13:13;6.40;99.90
39453;DHT22;25154;-33.684;151.102;2022-09-19T19:18:15;6.40;99.90
39453;DHT22;25154;-33.684;151.102;2022-09-19T19:23:17;6.60;99.90
39453;DHT22;25154;-33.684;151.102;2022-09-19T19:28:21;6.90;99.90
39453;DHT22;25154;-33.684;151.102;2022-09-19T19:33:25;6.40;99.90
39453;DHT22;25154;-33.684;151.102;2022-09-19T19:38:37;6.30;99.90
39453;DHT22;25154;-33.684;151.102;2022-09-19T19:43:41;6.40;99.90
39453;DHT22;25154;-33.684;151.102;2022-09-19T19:48:48;6.30;99.90
39453;DHT22;25154;-33.684;151.102;2022-09-19T19:53:53;6.30;99.90
39453;DHT22;25154;-33.684;151.102;2022-09-19T19:58:57;6.40;99.90
39453;DHT22;25154;-33.684;151.102;2022-09-19T20:04:02;6.40;99.90
39453;DHT22;25154;-33.684;151.102;2022-09-19T20:09:06;6.40;99.90
39453;DHT22;25154;-33.684;151.102;2022-09-19T20:14:14;6.60;99.90
39453;DHT22;25154;-33.684;151.102;2022-09-19T20:19:17;6.50;99.90
39453;DHT22;25154;-33.684;151.102;2022-09-19T20:24:23;6.40;99.90
39453;DHT22;25154;-33.684;151.102;2022-09-19T20:29:26;6.40;99.90
39453;DHT22;25154;-33.684;151.102;2022-09-19T20:34:30;6.50;99.90
39453;DHT22;25154;-33.684;151.102;2022-09-19T20:39:32;6.50;99.90
39453;DHT22;25154;-33.684;151.102;2022-09-19T20:44:35;6.60;99.90
39453;DHT22;25154;-33.684;151.102;2022-09-19T20:49:38;6.60;99.90
39453;DHT22;25154;-33.684;151.102;2022-09-19T20:54:41;6.80;99.90
39453;DHT22;25154;-33.684;151.102;2022-09-19T20:59:44;6.90;99.90
39453;DHT22;25154;-33.684;151.102;2022-09-19T21:04:46;7.10;99.90
39453;DHT22;25154;-33.684;151.102;2022-09-19T21:09:49;7.30;99.90
39453;DHT22;25154;-33.684;151.102;2022-09-19T21:14:57;7.50;99.90
39453;DHT22;25154;-33.684;151.102;2022-09-19T21:20:00;7.70;99.90
39453;DHT22;25154;-33.684;151.102;2022-09-19T21:25:03;7.90;99.90
39453;DHT22;25154;-33.684;151.102;2022-09-19T21:30:06;8.20;99.90
39453;DHT22;25154;-33.684;151.102;2022-09-19T21:35:09;8.60;99.90
39453;DHT22;25154;-33.684;151.102;2022-09-19T21:40:12;9.80;99.90
39453;DHT22;25154;-33.684;151.102;2022-09-19T21:45:18;10.50;99.90
39453;DHT22;25154;-33.684;151.102;2022-09-19T21:50:22;11.00;99.90
39453;DHT22;25154;-33.684;151.102;2022-09-19T21:55:25;11.20;99.90
39453;DHT22;25154;-33.684;151.102;2022-09-19T22:00:28;11.50;99.90
39453;DHT22;25154;-33.684;151.102;2022-09-19T22:05:31;11.70;99.90
39453;DHT22;25154;-33.684;151.102;2022-09-19T22:10:34;12.10;99.90
39453;DHT22;25154;-33.684;151.102;2022-09-19T22:15:37;12.30;99.90
39453;DHT22;25154;-33.684;151.102;2022-09-19T22:20:40;12.60;99.90
39453;DHT22;25154;-33.684;151.102;2022-09-19T22:25:43;13.00;99.90
39453;DHT22;25154;-33.684;151.102;2022-09-19T22:30:45;13.40;99.90
39453;DHT22;25154;-33.684;151.102;2022-09-19T22:35:48;13.70;99.90
39453;DHT22;25154;-33.684;151.102;2022-09-19T22:40:52;14.10;99.90
39453;DHT22;25154;-33.684;151.102;2022-09-19T22:45:56;14.40;99.90
39453;DHT22;25154;-33.684;151.102;2022-09-19T22:50:59;14.70;99.90
39453;DHT22;25154;-33.684;151.102;2022-09-19T22:56:17;15.10;99.90
39453;DHT22;25154;-33.684;151.102;2022-09-19T23:01:20;15.30;99.90
39453;DHT22;25154;-33.684;151.102;2022-09-19T23:06:30;16.20;99.90
39453;DHT22;25154;-33.684;151.102;2022-09-19T23:11:33;16.00;99.90
39453;DHT22;25154;-33.684;151.102;2022-09-19T23:16:38;16.20;99.90
39453;DHT22;25154;-33.684;151.102;2022-09-19T23:21:44;16.50;99.90
39453;DHT22;25154;-33.684;151.102;2022-09-19T23:26:47;16.90;99.90
39453;DHT22;25154;-33.684;151.102;2022-09-19T23:31:50;17.40;99.90
39453;DHT22;25154;-33.684;151.102;2022-09-19T23:36:53;17.90;99.90
39453;DHT22;25154;-33.684;151.102;2022-09-19T23:41:55;18.40;99.90
39453;DHT22;25154;-33.684;151.102;2022-09-19T23:46:59;18.70;99.90
39453;DHT22;25154;-33.684;151.102;2022-09-19T23:52:02;19.10;99.90
39453;DHT22;25154;-33.684;151.102;2022-09-19T23:57:05;19.00;99.90
